Time;durP1;ratioP1;P1;durP2;ratioP2;P2;SDS_P1;SDS_P2;PMS_P1;PMS_P2;Temp;Humidity;BMP_temperature;BMP_pressure;BME280_temperature;BME280_humidity;BME280_pressure;Samples;Min_cycle;Max_cycle;Signal;HPM_P1;HPM_P2
2024/02/02 00:00:42;;;;;;;16.20;5.00;;;;;;;3.40;79.79;100376.05;102428;1270;97832;-71
2024/02/02 00:03:28;;;;;;;;;;;;;;;3.38;79.77;100385.33;102571;1269;138255;-71
2024/02/02 00:05:55;;;;;;;14.10;4.70;;;;;;;3.33;79.83;100385.00;102413;1271;97736;-71
2024/02/02 00:08:22;;;;;;;15.40;4.80;;;;;;;3.29;79.92;100385.52;102367;1267;138485;-70
2024/02/02 00:10:49;;;;;;;20.60;5.00;;;;;;;3.28;80.12;100393.25;102462;1270;107844;-70
2024/02/02 00:13:16;;;;;;;17.90;4.90;;;;;;;3.26;80.06;100388.79;102475;1270;97844;-72
2024/02/02 00:15:43;;;;;;;16.30;4.50;;;;;;;3.25;80.15;100393.60;102335;1271;138279;-71
2024/02/02 00:18:09;;;;;;;23.40;4.90;;;;;;;3.24;80.02;100391.19;102458;1272;97796;-70
2024/02/02 00:20:37;;;;;;;20.40;5.20;;;;;;;3.22;80.31;100393.92;102349;1269;138442;-70
2024/02/02 00:23:04;;;;;;;19.80;4.90;;;;;;;3.21;80.34;100393.23;102398;1272;107112;-70
2024/02/02 00:25:31;;;;;;;15.10;5.00;;;;;;;3.19;80.23;100391.00;102586;1273;97707;-70
2024/02/02 00:27:58;;;;;;;16.70;4.80;;;;;;;3.19;80.45;100393.75;102319;1271;138237;-71
2024/02/02 00:30:24;;;;;;;19.00;5.00;;;;;;;3.18;80.22;100394.95;100980;1270;1003158;-69
2024/02/02 00:32:51;;;;;;;15.80;4.50;;;;;;;3.17;80.46;100395.64;102495;1270;138651;-70
2024/02/02 00:35:19;;;;;;;21.10;5.30;;;;;;;3.17;80.44;100396.51;102422;1269;108039;-70
2024/02/02 00:37:46;;;;;;;16.60;4.60;;;;;;;3.18;80.64;100394.44;102415;1270;98362;-70
2024/02/02 00:40:14;;;;;;;14.00;4.40;;;;;;;3.19;80.58;100397.02;102340;1270;138255;-70
2024/02/02 00:42:44;;;;;;;16.20;4.40;;;;;;;3.21;80.10;100392.71;102464;1270;97827;-70
2024/02/02 00:45:12;;;;;;;16.20;3.90;;;;;;;3.21;79.87;100387.56;102385;1270;138277;-69
2024/02/02 00:47:39;;;;;;;18.70;4.10;;;;;;;3.23;79.64;100393.41;102416;1273;107754;-70
2024/02/02 00:50:10;;;;;;;15.40;3.70;;;;;;;3.26;79.28;100403.39;102323;1271;138763;-70
2024/02/02 00:52:37;;;;;;;16.80;3.40;;;;;;;3.28;79.02;100405.11;102360;1270;106915;-71
2024/02/02 00:55:04;;;;;;;14.10;3.90;;;;;;;3.29;78.69;100402.54;102499;1269;97882;-72
2024/02/02 00:57:31;;;;;;;21.10;4.30;;;;;;;3.32;78.14;100410.77;102654;1267;138261;-70
2024/02/02 00:59:58;;;;;;;19.30;4.70;;;;;;;3.34;77.89;100410.59;102389;1272;107344;-71
2024/02/02 01:02:27;;;;;;;11.00;3.50;;;;;;;3.37;77.74;100414.38;102316;1270;138607;-70
2024/02/02 01:04:53;;;;;;;18.00;4.30;;;;;;;3.39;77.41;100416.95;102349;1272;109610;-70
2024/02/02 06:56:39;;;;;;;28.10;6.30;;;;;;;3.08;77.62;100629.81;103569;1263;115325;-70
2024/02/02 06:59:06;;;;;;;22.70;5.50;;;;;;;3.12;77.82;100631.55;103021;1273;138601;-70
2024/02/02 07:01:34;;;;;;;22.70;5.40;;;;;;;3.17;77.72;100629.33;102126;1269;97893;-71
2024/02/02 07:04:04;;;;;;;23.90;5.50;;;;;;;3.21;77.49;100627.95;101340;1270;1002807;-70
2024/02/02 07:06:32;;;;;;;19.60;5.10;;;;;;;3.25;77.32;100629.36;102030;1270;138416;-70
2024/02/02 07:09:06;;;;;;;21.70;5.50;;;;;;;3.37;77.43;100629.73;102130;1270;97870;-72
2024/02/02 07:11:59;;;;;;;21.30;5.50;;;;;;;3.58;77.13;100633.08;102256;1270;138319;-72
2024/02/02 07:14:45;;;;;;;22.70;5.80;;;;;;;3.85;76.47;100633.11;102098;1270;97829;-72
2024/02/02 07:17:26;;;;;;;24.60;6.00;;;;;;;4.14;76.23;100632.63;102677;1269;1002388;-73
2024/02/02 07:19:56;;;;;;;25.10;5.60;;;;;;;4.43;75.45;100637.44;102409;1269;108022;-72
2024/02/02 07:22:36;;;;;;;26.90;5.50;;;;;;;4.76;75.00;100637.56;102071;1270;138848;-72
2024/02/02 07:25:04;;;;;;;25.60;5.80;;;;;;;5.12;74.03;100636.41;102203;1270;108781;-71
2024/02/02 07:27:53;;;;;;;25.50;6.30;;;;;;;5.39;73.17;100627.16;102220;1270;98154;-72
2024/02/02 07:30:47;;;;;;;21.30;6.00;;;;;;;5.79;72.52;100634.35;102088;1270;139525;-70
2024/02/02 07:33:22;;;;;;;22.60;5.90;;;;;;;6.11;71.77;100634.51;102190;1270;107750;-72
2024/02/02 07:35:49;;;;;;;23.50;6.30;;;;;;;6.15;71.22;100637.23;102519;1269;138766;-72
2024/02/02 07:38:46;;;;;;;23.10;5.90;;;;;;;6.14;70.32;100640.88;100687;1270;1003224;-71
2024/02/02 07:41:15;;;;;;;23.40;5.60;;;;;;;6.01;69.96;100641.30;102109;1273;138943;-70
2024/02/02 07:43:42;;;;;;;20.90;5.70;;;;;;;6.05;70.16;100642.48;101433;1272;1002686;-70
2024/02/02 07:46:10;;;;;;;18.50;5.50;;;;;;;6.22;70.06;100642.18;102187;1270;107600;-71
2024/02/02 07:48:42;;;;;;;24.90;5.70;;;;;;;6.39;69.81;100640.14;102263;1270;101135;-69
2024/02/02 07:51:11;;;;;;;20.40;5.40;;;;;;;6.59;69.42;100645.48;102204;1269;106865;-70
2024/02/02 07:53:38;;;;;;;21.40;6.40;;;;;;;6.81;68.83;100643.20;102101;1271;138665;-71
2024/02/02 07:56:06;;;;;;;18.50;5.70;;;;;;;7.00;68.69;100646.80;102222;1273;110635;-71
2024/02/02 07:58:33;;;;;;;17.50;5.40;;;;;;;7.21;68.13;100644.30;102026;1273;138807;-72
2024/02/02 08:01:00;;;;;;;16.70;5.70;;;;;;;7.42;67.86;100649.56;102129;1270;97835;-71
2024/02/02 08:03:27;;;;;;;22.40;5.20;;;;;;;7.68;67.26;100651.98;102025;1271;107577;-70
2024/02/02 08:05:54;;;;;;;20.10;5.90;;;;;;;7.96;66.56;100652.97;101992;1273;139679;-71
2024/02/02 08:08:22;;;;;;;16.90;5.20;;;;;;;8.24;65.85;100652.55;102136;1270;110790;-73
2024/02/02 08:10:49;;;;;;;19.60;5.60;;;;;;;8.52;65.79;100648.46;102035;1269;137897;-74
2024/02/02 08:13:18;;;;;;;15.80;5.50;;;;;;;8.80;64.76;100646.73;102100;1269;97840;-73
2024/02/02 08:15:48;;;;;;;21.70;6.00;;;;;;;9.04;64.10;100647.15;101995;1270;106914;-77
2024/02/02 08:18:15;;;;;;;17.40;5.30;;;;;;;9.19;63.43;100642.19;101959;1270;138954;-72
2024/02/02 08:20:42;;;;;;;19.60;6.10;;;;;;;9.30;62.90;100646.28;102109;1273;110371;-74
2024/02/02 08:23:09;;;;;;;20.30;5.70;;;;;;;9.54;62.35;100640.92;101935;1275;139451;-73
2024/02/02 08:25:36;;;;;;;17.30;6.00;;;;;;;9.78;61.51;100639.36;102101;1270;97727;-73
2024/02/02 08:28:04;;;;;;;17.70;5.70;;;;;;;10.02;60.96;100645.22;101976;1276;106609;-73
2024/02/02 08:30:31;;;;;;;18.50;6.20;;;;;;;10.13;60.06;100640.63;102004;1269;137830;-73
2024/02/02 08:32:58;;;;;;;20.40;6.20;;;;;;;10.19;59.55;100636.80;102141;1270;111433;-73
2024/02/02 08:35:28;;;;;;;14.60;5.40;;;;;;;10.17;58.07;100626.95;101997;1269;138252;-73
2024/02/02 08:37:58;;;;;;;18.20;7.10;;;;;;;10.23;58.08;100625.96;102102;1270;97928;-73
2024/02/02 08:40:40;;;;;;;17.20;5.40;;;;;;;10.40;57.32;100629.90;102024;1270;138678;-73
2024/02/02 08:43:11;;;;;;;20.20;8.50;;;;;;;10.63;57.39;100634.68;102166;1270;97867;-73
2024/02/02 08:46:12;;;;;;;19.90;6.30;;;;;;;11.01;56.63;100630.36;102090;1270;111955;-74
2024/02/02 08:48:44;;;;;;;22.10;5.90;;;;;;;11.46;55.10;100632.37;102099;1271;106967;-73
2024/02/02 08:51:49;;;;;;;13.50;5.00;;;;;;;11.74;54.32;100629.95;102170;1270;98623;-72
2024/02/02 08:54:38;;;;;;;36.10;32.60;;;;;;;12.01;52.61;100632.27;102017;1270;138048;-72
2024/02/02 08:57:33;;;;;;;17.60;5.10;;;;;;;12.22;52.37;100630.89;102189;1273;98556;-72
2024/02/02 09:00:11;;;;;;;16.70;5.30;;;;;;;12.53;51.68;100622.55;102092;1273;136988;-74
2024/02/02 09:03:18;;;;;;;17.50;5.50;;;;;;;12.72;51.13;100621.71;102120;1275;107965;-73
2024/02/02 09:05:57;;;;;;;15.30;4.90;;;;;;;12.80;50.30;100620.92;102062;1273;138735;-73
2024/02/02 09:08:34;;;;;;;17.60;5.20;;;;;;;12.81;50.38;100624.36;102290;1270;107320;-72
2024/02/02 09:11:18;;;;;;;18.30;5.70;;;;;;;12.87;50.37;100631.12;102027;1270;139274;-72
2024/02/02 09:13:46;;;;;;;17.20;5.00;;;;;;;12.89;50.21;100643.42;102153;1273;110887;-72
2024/02/02 09:16:15;;;;;;;17.70;5.50;;;;;;;12.92;50.05;100644.88;102099;1275;107744;-72
2024/02/02 09:18:44;;;;;;;19.70;5.70;;;;;;;12.99;50.59;100640.96;102363;1274;97952;-73
2024/02/02 09:21:13;;;;;;;15.70;5.10;;;;;;;13.17;50.30;100641.05;102051;1273;107590;-72
2024/02/02 09:23:45;;;;;;;18.70;5.50;;;;;;;13.38;50.03;100636.78;102059;1270;138841;-72
2024/02/02 09:26:14;;;;;;;13.40;5.20;;;;;;;13.51;48.83;100643.64;102118;1270;110928;-73
2024/02/02 09:28:45;;;;;;;19.60;5.80;;;;;;;13.53;48.28;100644.62;101977;1273;138206;-74
2024/02/02 09:31:21;;;;;;;20.70;6.10;;;;;;;13.54;48.20;100647.01;102185;1269;98847;-74
2024/02/02 09:33:50;;;;;;;19.10;5.90;;;;;;;13.54;48.69;100649.48;102066;1270;108135;-72
2024/02/02 09:36:21;;;;;;;16.10;5.80;;;;;;;13.62;49.19;100644.61;102044;1270;139866;-73
2024/02/02 09:39:04;;;;;;;20.10;6.30;;;;;;;13.67;48.89;100649.30;102161;1272;110974;-72
2024/02/02 09:42:07;;;;;;;20.20;6.80;;;;;;;13.57;48.57;100644.81;101985;1270;138093;-72
2024/02/02 09:44:52;;;;;;;19.20;5.80;;;;;;;13.47;47.91;100644.16;101532;1276;97892;-73
2024/02/02 09:47:43;;;;;;;19.50;6.00;;;;;;;13.00;47.65;100640.27;101309;1281;138834;-71
2024/02/02 09:50:25;;;;;;;19.30;6.30;;;;;;;12.75;48.50;100652.13;102390;1276;97845;-72
2024/02/02 09:53:23;;;;;;;20.70;6.30;;;;;;;12.29;48.16;100645.48;101434;1278;138044;-71
2024/02/02 09:55:57;;;;;;;20.60;6.00;;;;;;;12.10;49.37;100658.31;102074;1276;108084;-72
2024/02/02 09:58:28;;;;;;;20.10;5.90;;;;;;;12.07;49.63;100655.61;102073;1276;138961;-71
2024/02/02 10:01:06;;;;;;;21.30;6.20;;;;;;;11.75;50.35;100654.85;101669;1276;106941;-76
2024/02/02 10:03:46;;;;;;;23.10;5.90;;;;;;;11.36;50.41;100655.13;101356;1276;98011;-73
2024/02/02 10:06:30;;;;;;;21.10;6.70;;;;;;;10.78;50.11;100654.98;101535;1276;138738;-73
2024/02/02 10:09:16;;;;;;;20.20;5.90;;;;;;;10.34;51.04;100653.69;101531;1276;107493;-72
2024/02/02 10:11:57;;;;;;;25.80;6.60;;;;;;;10.02;51.93;100658.61;101770;1276;139191;-72
2024/02/02 10:14:46;;;;;;;21.40;6.20;;;;;;;9.68;52.30;100652.95;101520;1276;107808;-70
2024/02/02 10:17:26;;;;;;;25.50;6.10;;;;;;;9.46;52.92;100651.34;101418;1276;138993;-73
2024/02/02 10:20:11;;;;;;;21.00;5.60;;;;;;;9.12;53.30;100651.17;101469;1276;111112;-72
2024/02/02 10:23:04;;;;;;;27.60;7.20;;;;;;;8.78;53.99;100647.81;102026;1273;138569;-73
2024/02/02 10:25:50;;;;;;;21.50;6.40;;;;;;;8.66;54.97;100649.61;102146;1273;98299;-72
2024/02/02 10:28:34;;;;;;;22.50;6.00;;;;;;;8.73;55.22;100644.96;102041;1273;108336;-72
2024/02/02 10:31:14;;;;;;;27.60;6.50;;;;;;;8.58;55.66;100648.86;102040;1273;97739;-73
2024/02/02 10:33:53;;;;;;;24.20;6.10;;;;;;;8.40;55.88;100653.34;102038;1275;111474;-72
2024/02/02 10:36:33;;;;;;;25.70;7.00;;;;;;;8.17;56.29;100656.81;102078;1273;137703;-72
2024/02/02 10:39:16;;;;;;;27.00;6.50;;;;;;;7.96;57.03;100653.67;101938;1270;97870;-72
2024/02/02 10:42:00;;;;;;;30.40;8.60;;;;;;;7.76;57.44;100648.75;102034;1270;137553;-73
2024/02/02 10:44:44;;;;;;;23.90;7.40;;;;;;;7.58;58.17;100644.17;102165;1273;97819;-73
2024/02/02 10:47:31;;;;;;;31.90;7.00;;;;;;;7.43;58.58;100651.46;102100;1270;137751;-72
2024/02/02 10:50:07;;;;;;;30.00;7.20;;;;;;;7.36;58.92;100639.45;101986;1275;108165;-72
2024/02/02 10:52:38;;;;;;;;;;;;;;;7.31;59.54;100635.17;102090;1273;137901;-73
2024/02/02 10:55:20;;;;;;;24.70;6.20;;;;;;;7.22;59.79;100634.26;102092;1270;107935;-74
2024/02/02 10:57:56;;;;;;;30.30;6.70;;;;;;;6.99;59.99;100625.52;102177;1270;97739;-74
2024/02/02 11:00:29;;;;;;;22.50;6.70;;;;;;;6.80;60.57;100628.52;102077;1270;137795;-75
2024/02/02 11:03:13;;;;;;;27.60;6.80;;;;;;;6.64;60.92;100630.06;102147;1270;106217;-73
2024/02/02 11:05:48;;;;;;;28.40;6.70;;;;;;;6.47;61.78;100631.09;101982;1275;139891;-73
2024/02/02 11:08:20;;;;;;;27.30;6.70;;;;;;;6.31;62.13;100630.71;102157;1270;107833;-73
2024/02/02 11:10:57;;;;;;;22.90;6.10;;;;;;;6.20;62.66;100633.39;101268;1274;1003728;-72
2024/02/02 11:13:31;;;;;;;25.80;6.80;;;;;;;6.11;63.16;100633.13;102110;1270;110283;-73
2024/02/02 11:16:06;;;;;;;26.10;7.10;;;;;;;6.03;63.44;100634.90;102756;1270;107190;-73
2024/02/02 11:18:48;;;;;;;31.50;7.00;;;;;;;6.02;63.62;100631.28;103393;1270;138721;-74
2024/02/02 11:21:32;;;;;;;26.30;6.60;;;;;;;6.05;63.95;100627.45;102630;1270;106818;-73
2024/02/02 11:24:10;;;;;;;26.20;6.10;;;;;;;6.09;63.95;100624.50;102078;1270;138585;-74
2024/02/02 11:26:42;;;;;;;24.80;6.30;;;;;;;6.17;63.89;100620.83;102126;1270;110379;-74
2024/02/02 11:29:15;;;;;;;28.00;6.70;;;;;;;6.23;63.85;100619.02;101983;1275;138366;-73
2024/02/02 11:31:51;;;;;;;30.60;5.90;;;;;;;6.38;63.98;100613.21;102032;1270;97889;-73
2024/02/02 11:34:25;;;;;;;27.20;6.40;;;;;;;6.49;63.66;100615.52;102117;1275;108196;-74
2024/02/02 11:37:06;;;;;;;26.00;6.40;;;;;;;6.59;63.57;100615.23;102128;1270;97733;-74
2024/02/02 11:39:46;;;;;;;23.60;5.70;;;;;;;6.64;63.40;100611.40;102129;1270;111303;-73
2024/02/02 11:42:14;;;;;;;24.30;6.70;;;;;;;6.61;63.21;100605.55;102018;1275;138413;-73
2024/02/02 11:44:43;;;;;;;20.80;7.10;;;;;;;6.56;63.31;100610.10;102171;1270;97991;-72
2024/02/02 11:47:10;;;;;;;28.90;7.00;;;;;;;6.49;63.42;100601.02;102203;1270;138285;-74
2024/02/02 11:49:41;;;;;;;26.20;5.90;;;;;;;6.43;63.68;100606.92;101986;1270;98342;-72
2024/02/02 11:52:22;;;;;;;24.00;5.50;;;;;;;6.38;64.02;100607.33;102064;1270;112446;-74
2024/02/02 11:54:57;;;;;;;23.70;5.70;;;;;;;6.33;64.26;100603.75;102137;1270;109141;-74
2024/02/02 11:57:29;;;;;;;25.60;7.00;;;;;;;6.28;64.55;100597.75;102189;1270;97820;-73
2024/02/02 11:59:59;;;;;;;28.70;6.10;;;;;;;6.24;64.74;100601.75;101948;1270;138272;-72
2024/02/02 12:02:47;;;;;;;23.50;6.30;;;;;;;6.20;64.65;100597.99;102213;1270;97735;-71
2024/02/02 12:05:19;;;;;;;33.30;6.90;;;;;;;6.15;64.85;100603.07;102025;1269;138241;-70
2024/02/02 12:07:58;;;;;;;25.70;6.70;;;;;;;6.11;65.44;100598.08;102101;1274;107812;-71
2024/02/02 12:10:28;;;;;;;28.10;6.50;;;;;;;6.06;65.52;100595.69;102545;1270;97864;-71
2024/02/02 12:13:00;;;;;;;26.60;6.40;;;;;;;6.02;65.76;100592.45;102271;1270;108007;-71
2024/02/02 12:15:27;;;;;;;28.90;6.60;;;;;;;6.00;66.00;100590.91;102201;1274;97934;-71
2024/02/02 12:17:54;;;;;;;22.00;6.80;;;;;;;6.00;66.07;100587.46;101337;1270;1016087;-69
2024/02/02 12:20:22;;;;;;;27.30;7.50;;;;;;;5.99;66.29;100591.27;102233;1275;108504;-70
2024/02/02 12:22:50;;;;;;;27.60;7.00;;;;;;;6.00;66.50;100584.87;102030;1275;138913;-72
2024/02/02 12:25:19;;;;;;;28.20;6.90;;;;;;;6.01;66.68;100586.42;102195;1270;108167;-71
2024/02/02 12:27:46;;;;;;;28.50;7.50;;;;;;;5.96;66.91;100580.77;102166;1270;97857;-71
2024/02/02 12:30:16;;;;;;;29.70;7.30;;;;;;;5.93;66.80;100579.08;102021;1270;138730;-72
2024/02/02 12:32:54;;;;;;;21.50;6.70;;;;;;;5.93;67.01;100571.30;102144;1274;106987;-71
2024/02/02 12:35:23;;;;;;;24.70;6.20;;;;;;;5.97;67.06;100576.79;101943;1270;138433;-72
2024/02/02 12:37:51;;;;;;;27.10;6.70;;;;;;;6.01;67.18;100567.09;102359;1275;108357;-71
2024/02/02 12:40:20;;;;;;;24.40;6.40;;;;;;;6.00;66.96;100555.02;102283;1270;98133;-70
2024/02/02 12:42:47;;;;;;;25.80;5.90;;;;;;;5.99;66.71;100555.19;102726;1270;138683;-72
2024/02/02 12:45:15;;;;;;;28.10;6.70;;;;;;;5.98;66.63;100549.85;102716;1270;108511;-72
2024/02/02 12:47:44;;;;;;;22.90;6.00;;;;;;;5.99;66.67;100554.17;102154;1276;138450;-73
2024/02/02 12:50:15;;;;;;;20.60;5.90;;;;;;;6.01;66.89;100549.83;102363;1269;107762;-71
2024/02/02 12:52:43;;;;;;;18.20;5.00;;;;;;;6.05;66.85;100542.70;103030;1270;139242;-70
2024/02/02 12:55:12;;;;;;;20.80;5.10;;;;;;;6.04;66.43;100549.62;102199;1272;111698;-71
2024/02/02 12:57:44;;;;;;;20.70;6.40;;;;;;;6.03;66.46;100557.73;102298;1270;109034;-71
2024/02/02 13:00:14;;;;;;;28.10;5.80;;;;;;;6.00;66.45;100549.30;102099;1273;139472;-70
2024/02/02 13:02:45;;;;;;;21.10;5.90;;;;;;;5.94;66.44;100543.67;102492;1270;107758;-69
2024/02/02 13:05:16;;;;;;;26.30;6.20;;;;;;;5.92;66.65;100551.11;102358;1270;138470;-70
2024/02/02 13:07:45;;;;;;;28.90;6.30;;;;;;;5.89;66.85;100550.06;102287;1275;111265;-69
2024/02/02 13:10:13;;;;;;;25.20;6.60;;;;;;;5.83;67.03;100552.88;102219;1270;109038;-70
2024/02/02 13:12:46;;;;;;;24.70;6.80;;;;;;;5.78;67.16;100542.40;102151;1273;138590;-72
2024/02/02 13:15:18;;;;;;;21.30;6.20;;;;;;;5.71;67.45;100536.91;102159;1273;108646;-71
2024/02/02 13:17:59;;;;;;;24.40;6.20;;;;;;;5.64;67.59;100538.70;102573;1270;138882;-71
2024/02/02 13:20:33;;;;;;;21.50;5.80;;;;;;;5.57;67.96;100536.69;102153;1276;110437;-72
2024/02/02 13:23:10;;;;;;;28.70;7.00;;;;;;;5.53;69.40;100527.39;102293;1270;138773;-76
2024/02/02 13:25:41;;;;;;;25.80;7.30;;;;;;;5.60;69.57;100529.77;102136;1270;97819;-75
2024/02/02 13:28:16;;;;;;;19.60;7.20;;;;;;;5.57;69.19;100522.04;102301;1270;107735;-75
2024/02/02 13:30:52;;;;;;;31.90;9.00;;;;;;;5.55;69.39;100521.16;102020;1270;138500;-76
2024/02/02 13:33:22;;;;;;;28.10;8.10;;;;;;;5.52;69.35;100519.63;102123;1273;111210;-75
2024/02/02 13:35:54;;;;;;;25.30;8.00;;;;;;;5.50;69.38;100512.41;102123;1270;139909;-75
2024/02/02 13:38:22;;;;;;;27.10;7.30;;;;;;;5.46;69.65;100517.27;102154;1270;97854;-74
2024/02/02 13:40:53;;;;;;;30.80;7.80;;;;;;;5.43;69.77;100512.13;102049;1272;139831;-75
2024/02/02 13:43:20;;;;;;;23.20;7.40;;;;;;;5.37;69.54;100514.05;102196;1270;97816;-74
2024/02/02 13:45:48;;;;;;;28.80;7.70;;;;;;;5.33;69.75;100510.63;102261;1274;111706;-74
2024/02/02 13:48:16;;;;;;;23.90;8.00;;;;;;;5.31;69.92;100514.42;102032;1269;138411;-76
2024/02/02 13:50:51;;;;;;;26.90;8.00;;;;;;;5.32;70.09;100510.46;102175;1271;97717;-74
2024/02/02 13:53:21;;;;;;;25.50;8.20;;;;;;;5.32;70.39;100510.98;102075;1270;138309;-76
2024/02/02 13:55:48;;;;;;;24.00;8.10;;;;;;;5.29;70.47;100502.21;102168;1276;97825;-77
2024/02/02 13:58:15;;;;;;;26.90;8.00;;;;;;;5.27;70.70;100507.91;102218;1270;110406;-74
2024/02/02 14:00:42;;;;;;;22.70;8.60;;;;;;;5.25;70.68;100493.79;102034;1275;139475;-75
2024/02/02 14:03:11;;;;;;;25.60;8.60;;;;;;;5.17;70.73;100485.05;102137;1276;98401;-73
2024/02/02 14:05:39;;;;;;;26.20;8.10;;;;;;;5.24;70.91;100490.71;102000;1273;138570;-75
2024/02/02 14:08:07;;;;;;;29.40;7.90;;;;;;;5.23;71.11;100483.30;102062;1273;97826;-76
2024/02/02 14:10:44;;;;;;;25.40;8.50;;;;;;;5.22;71.04;100484.00;102008;1273;139452;-74
2024/02/02 14:13:18;;;;;;;22.80;7.80;;;;;;;5.21;71.35;100479.69;102154;1273;106566;-75
2024/02/02 14:15:49;;;;;;;31.20;7.80;;;;;;;5.20;71.33;100473.64;102255;1275;97834;-76
2024/02/02 14:18:20;;;;;;;27.30;7.60;;;;;;;5.19;71.57;100472.11;101983;1270;214850;-77
2024/02/02 14:20:47;;;;;;;22.40;8.20;;;;;;;5.19;71.71;100470.89;102114;1270;97860;-77
2024/02/02 14:23:15;;;;;;;24.90;7.70;;;;;;;5.20;71.85;100466.07;101791;1270;138377;-77
2024/02/02 14:25:43;;;;;;;29.80;7.80;;;;;;;5.18;71.99;100460.90;102161;1270;107282;-78
2024/02/02 14:28:17;;;;;;;30.50;9.10;;;;;;;5.18;72.15;100455.39;102034;1270;97722;-77
2024/02/02 14:30:44;;;;;;;25.20;7.80;;;;;;;5.18;72.14;100449.69;101987;1270;138201;-77
2024/02/02 14:33:13;;;;;;;21.70;8.00;;;;;;;5.17;72.19;100440.73;102107;1270;97845;-76
2024/02/02 14:35:51;;;;;;;28.30;7.20;;;;;;;5.15;72.23;100441.62;102053;1273;138539;-75
2024/02/02 14:38:18;;;;;;;27.80;8.40;;;;;;;5.13;72.09;100435.95;102043;1269;107531;-76
2024/02/02 14:40:48;;;;;;;26.10;7.20;;;;;;;5.13;72.38;100429.75;102025;1270;138976;-75
2024/02/02 14:43:15;;;;;;;34.00;7.80;;;;;;;5.12;72.48;100426.30;102068;1270;107177;-76
2024/02/02 14:45:42;;;;;;;29.50;8.00;;;;;;;5.10;72.64;100424.77;101962;1275;97844;-76
2024/02/02 14:48:10;;;;;;;29.10;8.20;;;;;;;5.09;72.51;100422.02;102005;1275;138199;-79
2024/02/02 14:50:38;;;;;;;25.60;7.90;;;;;;;5.08;72.68;100421.34;102065;1275;107177;-78
2024/02/02 14:53:06;;;;;;;24.20;8.20;;;;;;;5.06;72.52;100416.53;102033;1270;138776;-78
2024/02/02 14:55:33;;;;;;;26.70;7.60;;;;;;;5.06;72.66;100414.30;102097;1270;106844;-77
2024/02/02 14:58:00;;;;;;;23.00;7.80;;;;;;;5.06;72.84;100411.02;102038;1274;97831;-77
2024/02/02 15:00:30;;;;;;;25.00;8.30;;;;;;;5.03;72.81;100404.49;102073;1273;138258;-77
2024/02/02 15:02:59;;;;;;;31.70;9.20;;;;;;;5.01;72.86;100402.60;102071;1273;106803;-77
2024/02/02 15:05:26;;;;;;;27.00;7.80;;;;;;;5.00;72.98;100400.53;102025;1272;138644;-77
2024/02/02 15:07:54;;;;;;;24.70;8.20;;;;;;;4.98;73.00;100398.48;102184;1273;108600;-78
2024/02/02 15:10:21;;;;;;;29.60;8.10;;;;;;;4.98;73.14;100391.08;102231;1274;97835;-77
2024/02/02 15:12:48;;;;;;;25.80;7.80;;;;;;;4.96;73.20;100390.92;102013;1275;138269;-78
2024/02/02 15:15:16;;;;;;;21.60;8.00;;;;;;;4.93;73.15;100385.95;102093;1273;107312;-77
2024/02/02 15:17:43;;;;;;;27.10;8.50;;;;;;;4.90;73.26;100379.94;102010;1275;138414;-77
2024/02/02 15:20:11;;;;;;;26.30;8.70;;;;;;;4.88;73.25;100383.06;102152;1273;108442;-77
2024/02/02 15:22:38;;;;;;;26.90;8.40;;;;;;;4.87;73.55;100384.80;101993;1273;139615;-75
2024/02/02 15:25:08;;;;;;;21.70;8.10;;;;;;;4.85;73.64;100384.11;102034;1275;111269;-77
2024/02/02 15:27:35;;;;;;;25.10;8.70;;;;;;;4.83;73.72;100384.61;102526;1275;107098;-80
2024/02/02 15:30:06;;;;;;;25.50;8.30;;;;;;;4.84;73.78;100381.88;102022;1276;138444;-78
2024/02/02 15:32:33;;;;;;;29.60;9.70;;;;;;;4.86;73.70;100380.48;102357;1273;107615;-75
2024/02/02 15:35:00;;;;;;;23.00;8.40;;;;;;;4.87;73.67;100376.17;102004;1273;139238;-79
2024/02/02 15:37:27;;;;;;;25.40;9.00;;;;;;;4.89;73.67;100375.48;102061;1274;111367;-80
2024/02/02 15:39:57;;;;;;;27.70;8.60;;;;;;;4.89;73.58;100377.88;102006;1272;107751;-78
2024/02/02 15:42:25;;;;;;;28.30;9.10;;;;;;;4.90;73.67;100368.58;101983;1273;138378;-77
2024/02/02 15:44:54;;;;;;;29.00;9.90;;;;;;;4.89;73.46;100368.75;102084;1275;108975;-75
2024/02/02 15:47:21;;;;;;;30.50;10.10;;;;;;;4.88;73.58;100364.10;101952;1274;138476;-77
2024/02/02 15:49:48;;;;;;;24.30;9.70;;;;;;;4.87;73.45;100363.42;102140;1276;111586;-79
2024/02/02 15:52:16;;;;;;;29.10;10.20;;;;;;;4.86;73.51;100364.48;102031;1278;107375;-79
2024/02/02 15:54:43;;;;;;;28.60;9.70;;;;;;;4.86;73.62;100359.48;101925;1276;138347;-77
2024/02/02 15:57:12;;;;;;;26.60;10.00;;;;;;;4.84;73.72;100357.56;102128;1275;109887;-80
2024/02/02 15:59:40;;;;;;;24.40;10.30;;;;;;;4.85;73.81;100356.02;102001;1270;139673;-80
2024/02/02 16:02:09;;;;;;;24.50;10.30;;;;;;;4.86;73.95;100355.34;102094;1270;110978;-80
2024/02/02 16:04:36;;;;;;;23.70;10.30;;;;;;;4.85;74.12;100355.52;102013;1274;138757;-79
2024/02/02 16:07:05;;;;;;;21.70;9.80;;;;;;;4.85;73.86;100350.86;102059;1270;97898;-74
2024/02/02 16:09:38;;;;;;;22.50;11.10;;;;;;;4.83;74.26;100342.92;101946;1274;107294;-75
2024/02/02 16:12:06;;;;;;;28.30;12.20;;;;;;;4.85;74.09;100337.23;102256;1270;138631;-77
2024/02/02 16:14:33;;;;;;;32.20;11.50;;;;;;;4.85;74.17;100334.31;102083;1270;110505;-79
2024/02/02 16:17:00;;;;;;;26.60;12.40;;;;;;;4.84;74.48;100324.48;101938;1276;140322;-78
2024/02/02 16:19:27;;;;;;;31.20;12.40;;;;;;;4.83;74.49;100315.02;102100;1276;97812;-78
2024/02/02 16:21:54;;;;;;;25.80;11.60;;;;;;;4.83;74.48;100309.17;101886;1276;107791;-77
2024/02/02 16:24:21;;;;;;;26.50;13.10;;;;;;;4.81;74.76;100302.11;101922;1276;139734;-77
2024/02/02 16:26:48;;;;;;;27.30;12.50;;;;;;;4.82;74.94;100291.27;102127;1276;112423;-81
2024/02/02 16:29:15;;;;;;;28.60;12.60;;;;;;;4.82;74.83;100285.23;102010;1270;139103;-75
2024/02/02 16:31:45;;;;;;;30.60;13.50;;;;;;;4.82;75.08;100289.70;102159;1275;97832;-76
2024/02/02 16:34:12;;;;;;;28.40;14.10;;;;;;;4.79;75.17;100281.98;101903;1273;110092;-76
2024/02/02 16:36:44;;;;;;;32.60;13.80;;;;;;;4.78;75.32;100279.59;101943;1275;138744;-74
2024/02/02 16:39:13;;;;;;;36.10;14.30;;;;;;;4.77;75.44;100274.59;102054;1270;111548;-76
2024/02/02 16:41:40;;;;;;;31.70;14.90;;;;;;;4.76;75.71;100273.05;101933;1275;140280;-74
2024/02/02 16:44:08;;;;;;;29.70;14.40;;;;;;;4.75;75.93;100272.73;102112;1283;97840;-78
2024/02/02 16:46:34;;;;;;;30.60;14.80;;;;;;;4.74;75.92;100276.00;102054;1274;140569;-76
2024/02/02 16:49:01;;;;;;;31.70;14.60;;;;;;;4.73;76.35;100271.02;102090;1270;97841;-77
2024/02/02 16:51:28;;;;;;;32.50;15.20;;;;;;;4.71;76.34;100266.39;102034;1270;111485;-77
2024/02/02 16:53:55;;;;;;;33.30;15.10;;;;;;;4.67;76.60;100255.22;102021;1274;138761;-77
2024/02/02 16:56:23;;;;;;;32.90;15.00;;;;;;;4.65;76.88;100236.45;102144;1270;97835;-67
2024/02/02 16:58:50;;;;;;;28.90;14.10;;;;;;;4.71;78.28;100229.70;101867;1275;144561;-80
2024/02/02 17:01:26;;;;;;;31.30;12.90;;;;;;;4.70;77.33;100232.48;102102;1276;97915;-80
2024/02/02 17:03:53;;;;;;;28.90;12.80;;;;;;;4.63;77.26;100225.79;101901;1280;110964;-80
2024/02/02 17:06:20;;;;;;;27.10;12.60;;;;;;;4.56;77.38;100208.30;101902;1273;138691;-82
2024/02/02 17:08:47;;;;;;;30.60;12.20;;;;;;;4.51;77.46;100204.90;101386;1276;1003141;-83
2024/02/02 17:11:14;;;;;;;26.70;10.60;;;;;;;4.48;77.84;100204.74;101202;1270;1003291;-83
2024/02/02 17:13:41;;;;;;;25.60;10.40;;;;;;;4.43;77.88;100195.30;102047;1272;97812;-82
2024/02/02 17:16:08;;;;;;;26.30;10.30;;;;;;;4.40;78.04;100195.69;102087;1276;111746;-79
2024/02/02 17:18:40;;;;;;;25.60;10.00;;;;;;;4.36;78.27;100195.04;101994;1273;138663;-78
2024/02/02 17:21:08;;;;;;;22.50;9.60;;;;;;;4.33;78.34;100195.41;102030;1276;97928;-74